sensor_id;sensor_type;location;lat;lon;timestamp;P1;durP1;ratioP1;P2;durP2;ratioP2
3311;SDS011;1668;49.648;8.570;2023-12-22T00:01:25;0.70;;;0.60;;
3311;SDS011;1668;49.648;8.570;2023-12-22T00:03:52;1.40;;;0.50;;
3311;SDS011;1668;49.648;8.570;2023-12-22T00:06:19;1.10;;;0.50;;
3311;SDS011;1668;49.648;8.570;2023-12-22T00:08:47;0.60;;;0.50;;
3311;SDS011;1668;49.648;8.570;2023-12-22T00:11:14;1.83;;;0.60;;
3311;SDS011;1668;49.648;8.570;2023-12-22T00:13:41;0.60;;;0.40;;
3311;SDS011;1668;49.648;8.570;2023-12-22T00:16:08;1.27;;;0.50;;
3311;SDS011;1668;49.648;8.570;2023-12-22T00:18:36;0.80;;;0.40;;
3311;SDS011;1668;49.648;8.570;2023-12-22T00:21:03;2.00;;;0.60;;
3311;SDS011;1668;49.648;8.570;2023-12-22T00:23:30;0.80;;;0.43;;
3311;SDS011;1668;49.648;8.570;2023-12-22T00:26:02;0.63;;;0.50;;
3311;SDS011;1668;49.648;8.570;2023-12-22T00:28:29;0.70;;;0.50;;
3311;SDS011;1668;49.648;8.570;2023-12-22T00:30:56;0.83;;;0.57;;
3311;SDS011;1668;49.648;8.570;2023-12-22T00:33:23;0.70;;;0.40;;
3311;SDS011;1668;49.648;8.570;2023-12-22T00:35:50;1.13;;;0.50;;
3311;SDS011;1668;49.648;8.570;2023-12-22T00:38:18;0.70;;;0.50;;
3311;SDS011;1668;49.648;8.570;2023-12-22T00:40:44;0.93;;;0.70;;
3311;SDS011;1668;49.648;8.570;2023-12-22T00:43:13;0.60;;;0.50;;
3311;SDS011;1668;49.648;8.570;2023-12-22T00:45:39;0.60;;;0.50;;
3311;SDS011;1668;49.648;8.570;2023-12-22T00:48:06;0.80;;;0.50;;
3311;SDS011;1668;49.648;8.570;2023-12-22T00:50:33;1.40;;;0.60;;
3311;SDS011;1668;49.648;8.570;2023-12-22T00:53:00;0.87;;;0.50;;
3311;SDS011;1668;49.648;8.570;2023-12-22T00:55:27;0.87;;;0.43;;
3311;SDS011;1668;49.648;8.570;2023-12-22T00:57:54;0.80;;;0.50;;
3311;SDS011;1668;49.648;8.570;2023-12-22T01:00:22;0.60;;;0.40;;
3311;SDS011;1668;49.648;8.570;2023-12-22T01:02:49;0.60;;;0.43;;
3311;SDS011;1668;49.648;8.570;2023-12-22T01:05:15;0.90;;;0.50;;
3311;SDS011;1668;49.648;8.570;2023-12-22T01:07:42;0.70;;;0.50;;
3311;SDS011;1668;49.648;8.570;2023-12-22T01:10:09;1.23;;;0.50;;
3311;SDS011;1668;49.648;8.570;2023-12-22T01:12:36;0.60;;;0.50;;
3311;SDS011;1668;49.648;8.570;2023-12-22T01:15:03;0.60;;;0.40;;
3311;SDS011;1668;49.648;8.570;2023-12-22T01:17:32;0.70;;;0.40;;
3311;SDS011;1668;49.648;8.570;2023-12-22T01:19:59;0.70;;;0.50;;
3311;SDS011;1668;49.648;8.570;2023-12-22T01:22:26;0.77;;;0.47;;
3311;SDS011;1668;49.648;8.570;2023-12-22T01:24:53;0.70;;;0.40;;
3311;SDS011;1668;49.648;8.570;2023-12-22T01:27:20;0.80;;;0.50;;
3311;SDS011;1668;49.648;8.570;2023-12-22T01:29:47;0.70;;;0.40;;
3311;SDS011;1668;49.648;8.570;2023-12-22T01:32:13;0.90;;;0.60;;
3311;SDS011;1668;49.648;8.570;2023-12-22T01:34:42;1.00;;;0.60;;
3311;SDS011;1668;49.648;8.570;2023-12-22T01:37:11;1.53;;;1.17;;
3311;SDS011;1668;49.648;8.570;2023-12-22T01:39:38;2.37;;;0.50;;
3311;SDS011;1668;49.648;8.570;2023-12-22T01:42:04;1.00;;;0.50;;
3311;SDS011;1668;49.648;8.570;2023-12-22T01:44:31;1.13;;;0.50;;
3311;SDS011;1668;49.648;8.570;2023-12-22T01:46:58;1.23;;;0.50;;
3311;SDS011;1668;49.648;8.570;2023-12-22T01:49:26;0.70;;;0.50;;
3311;SDS011;1668;49.648;8.570;2023-12-22T01:51:56;0.70;;;0.60;;
3311;SDS011;1668;49.648;8.570;2023-12-22T01:54:23;1.10;;;0.50;;
3311;SDS011;1668;49.648;8.570;2023-12-22T01:56:50;0.70;;;0.50;;
3311;SDS011;1668;49.648;8.570;2023-12-22T01:59:17;2.10;;;0.83;;
3311;SDS011;1668;49.648;8.570;2023-12-22T02:01:44;3.10;;;0.50;;
3311;SDS011;1668;49.648;8.570;2023-12-22T02:04:11;1.07;;;0.50;;
3311;SDS011;1668;49.648;8.570;2023-12-22T02:06:40;3.03;;;0.50;;
3311;SDS011;1668;49.648;8.570;2023-12-22T02:09:09;1.70;;;0.47;;
3311;SDS011;1668;49.648;8.570;2023-12-22T02:11:37;2.07;;;0.60;;
3311;SDS011;1668;49.648;8.570;2023-12-22T02:14:05;1.40;;;0.80;;
3311;SDS011;1668;49.648;8.570;2023-12-22T02:16:35;0.60;;;0.40;;
3311;SDS011;1668;49.648;8.570;2023-12-22T02:19:09;1.27;;;0.50;;
3311;SDS011;1668;49.648;8.570;2023-12-22T02:24:29;2.47;;;0.53;;
3311;SDS011;1668;49.648;8.570;2023-12-22T02:26:57;1.33;;;0.60;;
3311;SDS011;1668;49.648;8.570;2023-12-22T02:29:30;1.10;;;0.60;;
3311;SDS011;1668;49.648;8.570;2023-12-22T02:32:02;0.87;;;0.60;;
3311;SDS011;1668;49.648;8.570;2023-12-22T02:34:35;1.20;;;0.60;;
3311;SDS011;1668;49.648;8.570;2023-12-22T02:37:04;1.10;;;0.60;;
3311;SDS011;1668;49.648;8.570;2023-12-22T02:39:35;1.47;;;0.80;;
3311;SDS011;1668;49.648;8.570;2023-12-22T02:42:03;1.27;;;0.60;;
3311;SDS011;1668;49.648;8.570;2023-12-22T02:44:31;1.77;;;0.80;;
3311;SDS011;1668;49.648;8.570;2023-12-22T02:46:58;1.07;;;0.83;;
3311;SDS011;1668;49.648;8.570;2023-12-22T02:49:25;1.80;;;1.00;;
3311;SDS011;1668;49.648;8.570;2023-12-22T02:51:51;1.63;;;0.70;;
3311;SDS011;1668;49.648;8.570;2023-12-22T02:54:18;1.40;;;0.90;;
3311;SDS011;1668;49.648;8.570;2023-12-22T02:56:47;4.20;;;0.80;;
3311;SDS011;1668;49.648;8.570;2023-12-22T02:59:14;1.53;;;0.80;;
3311;SDS011;1668;49.648;8.570;2023-12-22T03:01:41;3.70;;;1.50;;
3311;SDS011;1668;49.648;8.570;2023-12-22T03:04:07;4.17;;;1.53;;
3311;SDS011;1668;49.648;8.570;2023-12-22T03:06:34;5.77;;;1.77;;
3311;SDS011;1668;49.648;8.570;2023-12-22T03:09:01;2.67;;;1.33;;
3311;SDS011;1668;49.648;8.570;2023-12-22T03:11:28;1.50;;;0.93;;
3311;SDS011;1668;49.648;8.570;2023-12-22T03:13:56;4.20;;;1.03;;
3311;SDS011;1668;49.648;8.570;2023-12-22T03:16:23;2.43;;;0.93;;
3311;SDS011;1668;49.648;8.570;2023-12-22T03:18:50;2.00;;;0.70;;
3311;SDS011;1668;49.648;8.570;2023-12-22T03:21:17;1.13;;;0.70;;
3311;SDS011;1668;49.648;8.570;2023-12-22T03:23:44;2.70;;;0.90;;
3311;SDS011;1668;49.648;8.570;2023-12-22T03:26:11;8.20;;;1.53;;
3311;SDS011;1668;49.648;8.570;2023-12-22T03:28:38;4.80;;;1.57;;
3311;SDS011;1668;49.648;8.570;2023-12-22T03:31:07;3.63;;;1.30;;
3311;SDS011;1668;49.648;8.570;2023-12-22T03:33:34;2.23;;;0.80;;
3311;SDS011;1668;49.648;8.570;2023-12-22T03:36:00;1.63;;;0.70;;
3311;SDS011;1668;49.648;8.570;2023-12-22T03:38:27;3.00;;;1.10;;
3311;SDS011;1668;49.648;8.570;2023-12-22T03:40:54;1.90;;;0.73;;
3311;SDS011;1668;49.648;8.570;2023-12-22T03:43:21;1.97;;;0.80;;
3311;SDS011;1668;49.648;8.570;2023-12-22T03:45:48;2.30;;;0.73;;
3311;SDS011;1668;49.648;8.570;2023-12-22T03:48:16;2.40;;;0.70;;
3311;SDS011;1668;49.648;8.570;2023-12-22T03:50:43;2.37;;;0.70;;
3311;SDS011;1668;49.648;8.570;2023-12-22T03:53:10;2.10;;;0.70;;
3311;SDS011;1668;49.648;8.570;2023-12-22T03:55:37;3.00;;;1.30;;
3311;SDS011;1668;49.648;8.570;2023-12-22T03:58:04;4.40;;;1.50;;
3311;SDS011;1668;49.648;8.570;2023-12-22T04:00:32;3.97;;;1.20;;
3311;SDS011;1668;49.648;8.570;2023-12-22T04:02:59;3.43;;;1.10;;
3311;SDS011;1668;49.648;8.570;2023-12-22T04:05:28;3.87;;;1.33;;
3311;SDS011;1668;49.648;8.570;2023-12-22T04:07:54;2.83;;;1.00;;
3311;SDS011;1668;49.648;8.570;2023-12-22T04:10:21;2.07;;;1.07;;
3311;SDS011;1668;49.648;8.570;2023-12-22T04:12:48;6.93;;;1.10;;
3311;SDS011;1668;49.648;8.570;2023-12-22T04:15:15;3.90;;;1.00;;
3311;SDS011;1668;49.648;8.570;2023-12-22T04:17:42;2.93;;;0.97;;
3311;SDS011;1668;49.648;8.570;2023-12-22T04:20:09;3.03;;;1.13;;
3311;SDS011;1668;49.648;8.570;2023-12-22T04:22:37;4.03;;;1.00;;
3311;SDS011;1668;49.648;8.570;2023-12-22T04:25:04;3.67;;;1.20;;
3311;SDS011;1668;49.648;8.570;2023-12-22T04:27:32;1.90;;;1.00;;
3311;SDS011;1668;49.648;8.570;2023-12-22T04:30:00;2.67;;;1.00;;
3311;SDS011;1668;49.648;8.570;2023-12-22T04:32:27;3.00;;;0.80;;
3311;SDS011;1668;49.648;8.570;2023-12-22T04:34:53;3.13;;;1.07;;
3311;SDS011;1668;49.648;8.570;2023-12-22T04:37:20;2.73;;;1.07;;
3311;SDS011;1668;49.648;8.570;2023-12-22T04:39:48;2.40;;;0.80;;
3311;SDS011;1668;49.648;8.570;2023-12-22T04:42:15;2.50;;;1.03;;
3311;SDS011;1668;49.648;8.570;2023-12-22T04:44:43;3.07;;;0.80;;
3311;SDS011;1668;49.648;8.570;2023-12-22T04:47:10;1.93;;;1.10;;
3311;SDS011;1668;49.648;8.570;2023-12-22T04:49:37;2.00;;;1.00;;
3311;SDS011;1668;49.648;8.570;2023-12-22T04:52:04;2.17;;;1.10;;
3311;SDS011;1668;49.648;8.570;2023-12-22T04:54:31;1.67;;;0.70;;
3311;SDS011;1668;49.648;8.570;2023-12-22T04:56:59;2.10;;;0.83;;
3311;SDS011;1668;49.648;8.570;2023-12-22T04:59:26;2.30;;;0.80;;
3311;SDS011;1668;49.648;8.570;2023-12-22T05:01:53;2.77;;;0.80;;
3311;SDS011;1668;49.648;8.570;2023-12-22T05:04:20;3.00;;;1.00;;
3311;SDS011;1668;49.648;8.570;2023-12-22T05:06:47;2.00;;;0.97;;
3311;SDS011;1668;49.648;8.570;2023-12-22T05:09:14;4.33;;;1.37;;
3311;SDS011;1668;49.648;8.570;2023-12-22T05:11:41;3.20;;;1.53;;
3311;SDS011;1668;49.648;8.570;2023-12-22T05:14:09;2.20;;;1.10;;
3311;SDS011;1668;49.648;8.570;2023-12-22T05:16:36;3.23;;;1.00;;
3311;SDS011;1668;49.648;8.570;2023-12-22T05:19:03;5.70;;;1.27;;
3311;SDS011;1668;49.648;8.570;2023-12-22T05:21:30;3.20;;;1.27;;
3311;SDS011;1668;49.648;8.570;2023-12-22T05:23:57;2.03;;;0.83;;
3311;SDS011;1668;49.648;8.570;2023-12-22T05:26:24;4.53;;;1.00;;
3311;SDS011;1668;49.648;8.570;2023-12-22T05:28:55;2.50;;;0.90;;
3311;SDS011;1668;49.648;8.570;2023-12-22T05:31:23;2.00;;;0.77;;
3311;SDS011;1668;49.648;8.570;2023-12-22T05:33:51;2.53;;;1.03;;
3311;SDS011;1668;49.648;8.570;2023-12-22T05:36:17;7.67;;;1.77;;
3311;SDS011;1668;49.648;8.570;2023-12-22T05:38:44;6.60;;;1.43;;
3311;SDS011;1668;49.648;8.570;2023-12-22T05:41:13;4.20;;;1.30;;
3311;SDS011;1668;49.648;8.570;2023-12-22T05:43:39;3.90;;;1.70;;
3311;SDS011;1668;49.648;8.570;2023-12-22T05:46:07;4.93;;;1.60;;
3311;SDS011;1668;49.648;8.570;2023-12-22T05:48:36;5.40;;;1.53;;
3311;SDS011;1668;49.648;8.570;2023-12-22T05:51:03;7.87;;;1.60;;
3311;SDS011;1668;49.648;8.570;2023-12-22T05:53:32;3.20;;;1.70;;
3311;SDS011;1668;49.648;8.570;2023-12-22T05:55:59;4.90;;;1.20;;
3311;SDS011;1668;49.648;8.570;2023-12-22T05:58:26;2.17;;;1.00;;
3311;SDS011;1668;49.648;8.570;2023-12-22T06:00:53;8.40;;;1.30;;
3311;SDS011;1668;49.648;8.570;2023-12-22T06:03:20;8.73;;;1.10;;
3311;SDS011;1668;49.648;8.570;2023-12-22T06:05:48;2.67;;;1.00;;
3311;SDS011;1668;49.648;8.570;2023-12-22T06:08:15;3.40;;;1.20;;
3311;SDS011;1668;49.648;8.570;2023-12-22T06:10:42;5.60;;;1.30;;
3311;SDS011;1668;49.648;8.570;2023-12-22T06:13:09;2.37;;;1.00;;
3311;SDS011;1668;49.648;8.570;2023-12-22T06:15:36;4.30;;;1.30;;
3311;SDS011;1668;49.648;8.570;2023-12-22T06:18:05;3.70;;;1.43;;
3311;SDS011;1668;49.648;8.570;2023-12-22T06:20:32;2.50;;;1.13;;
3311;SDS011;1668;49.648;8.570;2023-12-22T06:23:01;2.70;;;1.13;;
3311;SDS011;1668;49.648;8.570;2023-12-22T06:25:29;5.80;;;1.20;;
3311;SDS011;1668;49.648;8.570;2023-12-22T06:27:56;2.40;;;1.10;;
3311;SDS011;1668;49.648;8.570;2023-12-22T06:30:23;2.10;;;0.97;;
3311;SDS011;1668;49.648;8.570;2023-12-22T06:32:50;3.60;;;0.90;;
3311;SDS011;1668;49.648;8.570;2023-12-22T06:35:18;3.80;;;1.17;;
3311;SDS011;1668;49.648;8.570;2023-12-22T06:37:48;6.63;;;1.40;;
3311;SDS011;1668;49.648;8.570;2023-12-22T06:40:18;3.63;;;1.10;;
3311;SDS011;1668;49.648;8.570;2023-12-22T06:42:45;4.97;;;1.37;;
3311;SDS011;1668;49.648;8.570;2023-12-22T06:45:12;5.80;;;1.30;;
3311;SDS011;1668;49.648;8.570;2023-12-22T06:47:39;2.70;;;1.30;;
3311;SDS011;1668;49.648;8.570;2023-12-22T06:50:06;4.07;;;1.23;;
3311;SDS011;1668;49.648;8.570;2023-12-22T06:52:35;5.10;;;1.50;;
3311;SDS011;1668;49.648;8.570;2023-12-22T06:55:02;3.93;;;1.90;;
3311;SDS011;1668;49.648;8.570;2023-12-22T06:57:30;4.47;;;2.00;;
3311;SDS011;1668;49.648;8.570;2023-12-22T06:59:57;3.57;;;1.87;;
3311;SDS011;1668;49.648;8.570;2023-12-22T07:02:25;7.20;;;2.93;;
3311;SDS011;1668;49.648;8.570;2023-12-22T07:07:57;6.13;;;2.03;;
3311;SDS011;1668;49.648;8.570;2023-12-22T07:10:24;2.57;;;1.67;;
3311;SDS011;1668;49.648;8.570;2023-12-22T07:12:52;3.60;;;1.47;;
3311;SDS011;1668;49.648;8.570;2023-12-22T07:15:19;6.37;;;2.20;;
3311;SDS011;1668;49.648;8.570;2023-12-22T07:17:46;6.60;;;2.90;;
3311;SDS011;1668;49.648;8.570;2023-12-22T07:20:13;5.60;;;2.87;;
3311;SDS011;1668;49.648;8.570;2023-12-22T07:22:40;6.40;;;3.00;;
3311;SDS011;1668;49.648;8.570;2023-12-22T07:25:07;11.73;;;2.20;;
3311;SDS011;1668;49.648;8.570;2023-12-22T07:27:34;6.60;;;2.07;;
3311;SDS011;1668;49.648;8.570;2023-12-22T07:30:03;5.90;;;1.60;;
3311;SDS011;1668;49.648;8.570;2023-12-22T07:32:30;8.90;;;2.13;;
3311;SDS011;1668;49.648;8.570;2023-12-22T07:34:57;8.57;;;1.90;;
3311;SDS011;1668;49.648;8.570;2023-12-22T07:37:24;7.00;;;1.40;;
3311;SDS011;1668;49.648;8.570;2023-12-22T07:39:51;10.10;;;1.70;;
3311;SDS011;1668;49.648;8.570;2023-12-22T07:42:18;9.27;;;2.00;;
3311;SDS011;1668;49.648;8.570;2023-12-22T07:44:45;5.10;;;1.40;;
3311;SDS011;1668;49.648;8.570;2023-12-22T07:47:13;6.20;;;1.77;;
3311;SDS011;1668;49.648;8.570;2023-12-22T07:49:40;6.70;;;1.67;;
3311;SDS011;1668;49.648;8.570;2023-12-22T07:52:07;5.30;;;1.53;;
3311;SDS011;1668;49.648;8.570;2023-12-22T07:54:34;4.33;;;1.60;;
3311;SDS011;1668;49.648;8.570;2023-12-22T07:57:00;6.80;;;1.50;;
3311;SDS011;1668;49.648;8.570;2023-12-22T07:59:27;4.60;;;1.57;;
3311;SDS011;1668;49.648;8.570;2023-12-22T08:01:54;3.77;;;1.40;;
3311;SDS011;1668;49.648;8.570;2023-12-22T08:04:22;11.20;;;3.27;;
3311;SDS011;1668;49.648;8.570;2023-12-22T08:06:49;11.47;;;2.27;;
3311;SDS011;1668;49.648;8.570;2023-12-22T08:09:17;3.43;;;1.20;;
3311;SDS011;1668;49.648;8.570;2023-12-22T08:11:44;3.60;;;1.33;;
3311;SDS011;1668;49.648;8.570;2023-12-22T08:14:12;4.80;;;1.13;;
3311;SDS011;1668;49.648;8.570;2023-12-22T08:16:38;2.63;;;0.90;;
3311;SDS011;1668;49.648;8.570;2023-12-22T08:19:05;5.27;;;1.37;;
3311;SDS011;1668;49.648;8.570;2023-12-22T08:21:33;2.00;;;1.10;;
3311;SDS011;1668;49.648;8.570;2023-12-22T08:24:00;3.83;;;1.17;;
3311;SDS011;1668;49.648;8.570;2023-12-22T08:26:27;1.83;;;0.80;;
3311;SDS011;1668;49.648;8.570;2023-12-22T08:28:54;3.50;;;0.93;;
3311;SDS011;1668;49.648;8.570;2023-12-22T08:31:21;4.03;;;1.33;;
3311;SDS011;1668;49.648;8.570;2023-12-22T08:33:48;1.47;;;0.77;;
3311;SDS011;1668;49.648;8.570;2023-12-22T08:36:15;1.93;;;0.97;;
3311;SDS011;1668;49.648;8.570;2023-12-22T08:38:43;2.20;;;1.03;;
3311;SDS011;1668;49.648;8.570;2023-12-22T08:41:10;5.13;;;1.03;;
3311;SDS011;1668;49.648;8.570;2023-12-22T08:43:39;3.03;;;0.93;;
3311;SDS011;1668;49.648;8.570;2023-12-22T08:46:07;4.00;;;1.17;;
3311;SDS011;1668;49.648;8.570;2023-12-22T08:48:34;2.73;;;1.07;;
3311;SDS011;1668;49.648;8.570;2023-12-22T08:51:01;1.83;;;1.03;;
3311;SDS011;1668;49.648;8.570;2023-12-22T08:53:29;2.87;;;1.47;;
3311;SDS011;1668;49.648;8.570;2023-12-22T08:56:00;3.40;;;1.43;;
3311;SDS011;1668;49.648;8.570;2023-12-22T08:58:27;2.50;;;1.27;;
3311;SDS011;1668;49.648;8.570;2023-12-22T09:00:54;2.57;;;1.20;;
3311;SDS011;1668;49.648;8.570;2023-12-22T09:03:21;3.07;;;1.07;;
3311;SDS011;1668;49.648;8.570;2023-12-22T09:05:48;4.27;;;1.20;;
3311;SDS011;1668;49.648;8.570;2023-12-22T09:08:15;3.37;;;1.50;;
3311;SDS011;1668;49.648;8.570;2023-12-22T09:10:42;3.43;;;1.47;;
3311;SDS011;1668;49.648;8.570;2023-12-22T09:13:11;5.50;;;1.40;;
3311;SDS011;1668;49.648;8.570;2023-12-22T09:15:38;8.93;;;1.50;;
3311;SDS011;1668;49.648;8.570;2023-12-22T09:18:06;7.87;;;1.83;;
3311;SDS011;1668;49.648;8.570;2023-12-22T09:20:33;6.77;;;1.90;;
3311;SDS011;1668;49.648;8.570;2023-12-22T09:23:00;8.00;;;2.20;;
3311;SDS011;1668;49.648;8.570;2023-12-22T09:25:30;12.70;;;2.37;;
3311;SDS011;1668;49.648;8.570;2023-12-22T09:27:57;5.17;;;1.60;;
3311;SDS011;1668;49.648;8.570;2023-12-22T09:30:25;8.93;;;2.50;;
3311;SDS011;1668;49.648;8.570;2023-12-22T09:32:52;9.60;;;2.33;;
3311;SDS011;1668;49.648;8.570;2023-12-22T09:35:19;9.90;;;2.60;;
3311;SDS011;1668;49.648;8.570;2023-12-22T09:37:47;8.10;;;2.50;;
3311;SDS011;1668;49.648;8.570;2023-12-22T09:40:13;7.70;;;2.53;;
3311;SDS011;1668;49.648;8.570;2023-12-22T09:42:40;13.03;;;2.60;;
3311;SDS011;1668;49.648;8.570;2023-12-22T09:45:09;13.03;;;2.27;;
3311;SDS011;1668;49.648;8.570;2023-12-22T09:47:39;10.60;;;2.60;;
3311;SDS011;1668;49.648;8.570;2023-12-22T09:50:09;12.13;;;2.80;;
3311;SDS011;1668;49.648;8.570;2023-12-22T09:52:35;8.03;;;2.60;;
3311;SDS011;1668;49.648;8.570;2023-12-22T09:55:04;9.10;;;2.50;;
3311;SDS011;1668;49.648;8.570;2023-12-22T09:57:35;13.50;;;3.10;;
3311;SDS011;1668;49.648;8.570;2023-12-22T10:00:03;15.37;;;2.73;;
3311;SDS011;1668;49.648;8.570;2023-12-22T10:02:32;9.63;;;2.50;;
3311;SDS011;1668;49.648;8.570;2023-12-22T10:05:01;14.57;;;2.80;;
3311;SDS011;1668;49.648;8.570;2023-12-22T10:07:28;8.87;;;2.50;;
3311;SDS011;1668;49.648;8.570;2023-12-22T10:09:58;12.73;;;2.60;;
3311;SDS011;1668;49.648;8.570;2023-12-22T10:12:26;12.43;;;2.40;;
3311;SDS011;1668;49.648;8.570;2023-12-22T10:14:55;10.03;;;2.63;;
3311;SDS011;1668;49.648;8.570;2023-12-22T10:17:25;7.30;;;2.37;;
3311;SDS011;1668;49.648;8.570;2023-12-22T10:19:52;7.97;;;2.13;;
3311;SDS011;1668;49.648;8.570;2023-12-22T10:22:20;12.53;;;2.50;;
3311;SDS011;1668;49.648;8.570;2023-12-22T10:24:49;19.17;;;3.07;;
3311;SDS011;1668;49.648;8.570;2023-12-22T10:27:16;16.83;;;2.90;;
3311;SDS011;1668;49.648;8.570;2023-12-22T10:29:47;8.80;;;2.40;;
3311;SDS011;1668;49.648;8.570;2023-12-22T10:32:14;11.40;;;3.13;;
3311;SDS011;1668;49.648;8.570;2023-12-22T10:34:41;14.30;;;3.07;;
3311;SDS011;1668;49.648;8.570;2023-12-22T10:37:08;7.60;;;2.97;;
3311;SDS011;1668;49.648;8.570;2023-12-22T10:39:37;9.30;;;2.93;;
3311;SDS011;1668;49.648;8.570;2023-12-22T10:42:05;8.97;;;2.70;;
3311;SDS011;1668;49.648;8.570;2023-12-22T10:44:32;13.90;;;2.80;;
3311;SDS011;1668;49.648;8.570;2023-12-22T10:46:59;8.70;;;2.53;;
3311;SDS011;1668;49.648;8.570;2023-12-22T10:49:27;16.43;;;3.73;;
3311;SDS011;1668;49.648;8.570;2023-12-22T10:51:56;11.70;;;2.93;;
3311;SDS011;1668;49.648;8.570;2023-12-22T10:54:23;18.47;;;3.37;;
3311;SDS011;1668;49.648;8.570;2023-12-22T10:56:51;15.93;;;4.17;;
3311;SDS011;1668;49.648;8.570;2023-12-22T10:59:18;16.50;;;4.07;;
3311;SDS011;1668;49.648;8.570;2023-12-22T11:01:48;14.40;;;3.60;;
3311;SDS011;1668;49.648;8.570;2023-12-22T11:04:20;13.23;;;4.23;;
3311;SDS011;1668;49.648;8.570;2023-12-22T11:06:49;16.07;;;3.80;;
3311;SDS011;1668;49.648;8.570;2023-12-22T11:09:18;11.40;;;3.33;;
3311;SDS011;1668;49.648;8.570;2023-12-22T11:11:48;11.53;;;3.63;;
3311;SDS011;1668;49.648;8.570;2023-12-22T11:14:16;14.40;;;4.13;;
3311;SDS011;1668;49.648;8.570;2023-12-22T11:16:45;19.97;;;3.73;;
3311;SDS011;1668;49.648;8.570;2023-12-22T11:19:14;12.87;;;3.43;;
3311;SDS011;1668;49.648;8.570;2023-12-22T11:21:42;12.73;;;3.73;;
3311;SDS011;1668;49.648;8.570;2023-12-22T11:24:09;13.20;;;3.10;;
3311;SDS011;1668;49.648;8.570;2023-12-22T11:26:40;12.00;;;3.77;;
3311;SDS011;1668;49.648;8.570;2023-12-22T11:29:09;15.43;;;3.63;;
3311;SDS011;1668;49.648;8.570;2023-12-22T11:31:38;16.07;;;3.43;;
3311;SDS011;1668;49.648;8.570;2023-12-22T11:34:06;12.50;;;3.00;;
3311;SDS011;1668;49.648;8.570;2023-12-22T11:36:34;10.60;;;3.00;;
3311;SDS011;1668;49.648;8.570;2023-12-22T11:39:04;12.33;;;2.90;;
3311;SDS011;1668;49.648;8.570;2023-12-22T11:41:32;15.10;;;4.03;;
3311;SDS011;1668;49.648;8.570;2023-12-22T11:44:02;14.23;;;3.53;;
3311;SDS011;1668;49.648;8.570;2023-12-22T11:46:30;9.13;;;2.80;;
3311;SDS011;1668;49.648;8.570;2023-12-22T11:49:00;11.03;;;3.00;;
3311;SDS011;1668;49.648;8.570;2023-12-22T11:51:31;15.00;;;2.97;;
3311;SDS011;1668;49.648;8.570;2023-12-22T11:53:59;8.80;;;2.77;;
3311;SDS011;1668;49.648;8.570;2023-12-22T11:56:26;12.50;;;2.53;;
3311;SDS011;1668;49.648;8.570;2023-12-22T11:58:55;5.93;;;2.43;;
3311;SDS011;1668;49.648;8.570;2023-12-22T12:01:24;15.20;;;2.80;;
3311;SDS011;1668;49.648;8.570;2023-12-22T12:03:54;13.23;;;2.80;;
3311;SDS011;1668;49.648;8.570;2023-12-22T12:06:32;7.93;;;2.50;;
3311;SDS011;1668;49.648;8.570;2023-12-22T12:09:03;10.23;;;3.60;;
3311;SDS011;1668;49.648;8.570;2023-12-22T12:14:37;14.37;;;2.50;;
3311;SDS011;1668;49.648;8.570;2023-12-22T12:17:08;9.93;;;3.47;;
3311;SDS011;1668;49.648;8.570;2023-12-22T12:19:35;5.63;;;2.60;;
3311;SDS011;1668;49.648;8.570;2023-12-22T12:22:05;10.93;;;2.30;;
3311;SDS011;1668;49.648;8.570;2023-12-22T12:24:32;9.50;;;2.37;;
3311;SDS011;1668;49.648;8.570;2023-12-22T12:26:59;6.53;;;2.83;;
3311;SDS011;1668;49.648;8.570;2023-12-22T12:29:26;6.10;;;1.80;;
3311;SDS011;1668;49.648;8.570;2023-12-22T12:31:53;10.80;;;2.20;;
3311;SDS011;1668;49.648;8.570;2023-12-22T12:34:30;4.03;;;1.70;;
3311;SDS011;1668;49.648;8.570;2023-12-22T12:36:57;5.73;;;1.80;;
3311;SDS011;1668;49.648;8.570;2023-12-22T12:39:26;4.13;;;1.70;;
3311;SDS011;1668;49.648;8.570;2023-12-22T12:41:57;5.27;;;1.90;;
3311;SDS011;1668;49.648;8.570;2023-12-22T12:44:26;7.27;;;2.20;;
3311;SDS011;1668;49.648;8.570;2023-12-22T12:46:53;5.93;;;2.10;;
3311;SDS011;1668;49.648;8.570;2023-12-22T12:49:20;3.83;;;1.40;;
3311;SDS011;1668;49.648;8.570;2023-12-22T12:51:51;3.17;;;1.23;;
3311;SDS011;1668;49.648;8.570;2023-12-22T12:54:19;6.33;;;1.77;;
3311;SDS011;1668;49.648;8.570;2023-12-22T12:56:47;3.60;;;1.30;;
3311;SDS011;1668;49.648;8.570;2023-12-22T12:59:15;3.57;;;1.10;;
3311;SDS011;1668;49.648;8.570;2023-12-22T13:01:43;2.70;;;1.50;;
3311;SDS011;1668;49.648;8.570;2023-12-22T13:04:11;2.50;;;1.50;;
3311;SDS011;1668;49.648;8.570;2023-12-22T13:06:42;3.70;;;1.00;;
3311;SDS011;1668;49.648;8.570;2023-12-22T13:09:09;2.43;;;1.10;;
3311;SDS011;1668;49.648;8.570;2023-12-22T13:11:38;2.27;;;1.10;;
3311;SDS011;1668;49.648;8.570;2023-12-22T13:14:08;2.70;;;1.10;;
3311;SDS011;1668;49.648;8.570;2023-12-22T13:16:35;3.30;;;1.20;;
3311;SDS011;1668;49.648;8.570;2023-12-22T13:19:02;2.70;;;1.20;;
3311;SDS011;1668;49.648;8.570;2023-12-22T13:21:30;1.80;;;1.00;;
3311;SDS011;1668;49.648;8.570;2023-12-22T13:24:10;5.10;;;1.17;;
3311;SDS011;1668;49.648;8.570;2023-12-22T13:26:38;2.37;;;1.07;;
3311;SDS011;1668;49.648;8.570;2023-12-22T13:29:06;2.50;;;1.10;;
3311;SDS011;1668;49.648;8.570;2023-12-22T13:31:36;1.90;;;0.97;;
3311;SDS011;1668;49.648;8.570;2023-12-22T13:34:03;2.60;;;1.03;;
3311;SDS011;1668;49.648;8.570;2023-12-22T13:36:34;4.67;;;1.33;;
3311;SDS011;1668;49.648;8.570;2023-12-22T13:39:01;3.67;;;1.50;;
3311;SDS011;1668;49.648;8.570;2023-12-22T13:41:31;3.10;;;1.00;;
3311;SDS011;1668;49.648;8.570;2023-12-22T13:44:01;2.60;;;1.50;;
3311;SDS011;1668;49.648;8.570;2023-12-22T13:46:29;1.87;;;1.50;;
3311;SDS011;1668;49.648;8.570;2023-12-22T13:48:58;2.47;;;1.10;;
3311;SDS011;1668;49.648;8.570;2023-12-22T13:51:25;1.60;;;0.90;;
3311;SDS011;1668;49.648;8.570;2023-12-22T13:53:52;3.20;;;1.10;;
3311;SDS011;1668;49.648;8.570;2023-12-22T13:56:19;1.67;;;0.73;;
3311;SDS011;1668;49.648;8.570;2023-12-22T13:58:46;1.93;;;0.90;;
3311;SDS011;1668;49.648;8.570;2023-12-22T14:01:13;1.80;;;0.90;;
3311;SDS011;1668;49.648;8.570;2023-12-22T14:03:41;2.60;;;1.53;;
3311;SDS011;1668;49.648;8.570;2023-12-22T14:06:11;3.43;;;1.67;;
3311;SDS011;1668;49.648;8.570;2023-12-22T14:08:39;2.43;;;1.30;;
3311;SDS011;1668;49.648;8.570;2023-12-22T14:11:07;4.80;;;1.23;;
3311;SDS011;1668;49.648;8.570;2023-12-22T14:13:34;3.20;;;0.97;;
3311;SDS011;1668;49.648;8.570;2023-12-22T14:16:05;2.40;;;0.70;;
3311;SDS011;1668;49.648;8.570;2023-12-22T14:18:32;2.23;;;0.80;;
3311;SDS011;1668;49.648;8.570;2023-12-22T14:20:59;2.33;;;1.10;;
3311;SDS011;1668;49.648;8.570;2023-12-22T14:23:27;1.73;;;0.80;;
3311;SDS011;1668;49.648;8.570;2023-12-22T14:25:54;2.03;;;0.70;;
3311;SDS011;1668;49.648;8.570;2023-12-22T14:28:20;1.10;;;0.70;;
3311;SDS011;1668;49.648;8.570;2023-12-22T14:30:48;2.20;;;0.73;;
3311;SDS011;1668;49.648;8.570;2023-12-22T14:33:15;1.37;;;0.70;;
3311;SDS011;1668;49.648;8.570;2023-12-22T14:35:42;0.93;;;0.60;;
3311;SDS011;1668;49.648;8.570;2023-12-22T14:38:09;0.90;;;0.70;;
3311;SDS011;1668;49.648;8.570;2023-12-22T14:40:37;1.00;;;0.60;;
3311;SDS011;1668;49.648;8.570;2023-12-22T14:43:04;1.00;;;0.70;;
3311;SDS011;1668;49.648;8.570;2023-12-22T14:45:31;1.27;;;0.80;;
3311;SDS011;1668;49.648;8.570;2023-12-22T14:47:58;1.33;;;0.90;;
3311;SDS011;1668;49.648;8.570;2023-12-22T14:50:24;1.40;;;0.70;;
3311;SDS011;1668;49.648;8.570;2023-12-22T14:52:51;1.10;;;0.80;;
3311;SDS011;1668;49.648;8.570;2023-12-22T14:55:19;3.00;;;0.70;;
3311;SDS011;1668;49.648;8.570;2023-12-22T14:57:47;1.43;;;0.70;;
3311;SDS011;1668;49.648;8.570;2023-12-22T15:00:15;1.50;;;1.20;;
3311;SDS011;1668;49.648;8.570;2023-12-22T15:02:42;1.40;;;0.90;;
3311;SDS011;1668;49.648;8.570;2023-12-22T15:05:09;2.00;;;1.00;;
3311;SDS011;1668;49.648;8.570;2023-12-22T15:07:36;2.37;;;1.20;;
3311;SDS011;1668;49.648;8.570;2023-12-22T15:10:03;2.30;;;1.17;;
3311;SDS011;1668;49.648;8.570;2023-12-22T15:12:31;1.27;;;0.90;;
3311;SDS011;1668;49.648;8.570;2023-12-22T15:15:02;1.70;;;1.03;;
3311;SDS011;1668;49.648;8.570;2023-12-22T15:17:30;1.10;;;0.70;;
3311;SDS011;1668;49.648;8.570;2023-12-22T15:19:57;1.00;;;0.80;;
3311;SDS011;1668;49.648;8.570;2023-12-22T15:22:24;1.63;;;1.10;;
3311;SDS011;1668;49.648;8.570;2023-12-22T15:24:51;2.03;;;0.97;;